createdAt,value
2022-11-28T00:00:59.906Z,98162.34
2022-11-28T00:03:26.496Z,98159.72
2022-11-28T00:05:53.185Z,98163.03
2022-11-28T00:08:19.744Z,98161.50
2022-11-28T00:10:46.291Z,98160.84
2022-11-28T00:13:12.897Z,98161.38
2022-11-28T00:15:39.598Z,98158.59
2022-11-28T00:18:06.232Z,98154.06
2022-11-28T00:20:32.838Z,98154.06
2022-11-28T00:22:59.750Z,98152.69
2022-11-28T00:25:26.302Z,98149.78
2022-11-28T00:27:52.886Z,98147.81
2022-11-28T00:30:19.465Z,98154.19
2022-11-28T00:32:46.019Z,98148.38
2022-11-28T00:35:13.274Z,98155.56
2022-11-28T00:37:39.926Z,98146.44
2022-11-28T00:40:06.827Z,98156.41
2022-11-28T00:42:33.321Z,98153.50
2022-11-28T00:44:59.817Z,98149.91
2022-11-28T00:47:26.665Z,98160.28
2022-11-28T00:49:53.233Z,98152.56
2022-11-28T00:52:19.726Z,98151.16
2022-11-28T00:54:46.229Z,98151.28
2022-11-28T00:57:12.727Z,98149.22
2022-11-28T00:59:39.215Z,98150.44
2022-11-28T01:02:05.862Z,98151.41
2022-11-28T01:04:32.417Z,98152.63
2022-11-28T01:06:58.983Z,98149.44
2022-11-28T01:09:25.643Z,98159.44
2022-11-28T01:11:52.969Z,98154.47
2022-11-28T01:14:21.471Z,98148.38
2022-11-28T01:16:48.120Z,98151.00
2022-11-28T01:19:14.866Z,98142.53
2022-11-28T01:21:41.566Z,98122.19
2022-11-28T01:24:08.093Z,98127.28
2022-11-28T01:26:34.708Z,98127.47
2022-11-28T01:29:01.321Z,98109.88
2022-11-28T01:31:28.512Z,98117.63
2022-11-28T01:33:55.262Z,98105.03
2022-11-28T01:36:22.511Z,98119.84
2022-11-28T01:38:49.421Z,98110.59
2022-11-28T01:41:17.471Z,98112.38
2022-11-28T01:43:57.978Z,98112.81
2022-11-28T01:46:24.538Z,98123.75
2022-11-28T01:48:51.122Z,98121.94
2022-11-28T01:51:17.598Z,98127.91
2022-11-28T01:53:45.356Z,98125.09
2022-11-28T01:56:19.276Z,98113.63
2022-11-28T01:58:46.731Z,98121.38
2022-11-28T02:01:13.418Z,98111.69
2022-11-28T02:03:46.855Z,98111.16
2022-11-28T02:06:14.921Z,98117.06
2022-11-28T02:08:41.620Z,98114.81
2022-11-28T02:11:08.403Z,98101.41
2022-11-28T02:13:34.966Z,98103.91
2022-11-28T02:16:04.356Z,98105.44
2022-11-28T02:18:39.663Z,98088.28
2022-11-28T02:21:06.222Z,98077.50
2022-11-28T02:23:49.226Z,98076.13
2022-11-28T02:26:15.677Z,98080.28
2022-11-28T02:28:47.121Z,98075.25
2022-11-28T02:31:34.566Z,98071.13
2022-11-28T02:34:01.625Z,98062.00
2022-11-28T02:36:29.533Z,98056.59
2022-11-28T02:39:17.398Z,98044.59
2022-11-28T02:41:49.995Z,98045.69
2022-11-28T02:44:23.413Z,98031.88
2022-11-28T02:46:53.004Z,98028.81
2022-11-28T02:49:24.014Z,98023.16
2022-11-28T02:51:52.414Z,98011.13
2022-11-28T02:54:19.035Z,98009.75
2022-11-28T02:56:52.506Z,98006.16
2022-11-28T02:59:33.281Z,98024.53
2022-11-28T03:02:00.043Z,98028.84
2022-11-28T03:04:45.545Z,98034.38
2022-11-28T03:07:41.274Z,98034.09
2022-11-28T03:10:28.434Z,98017.63
2022-11-28T03:13:27.759Z,98022.88
2022-11-28T03:15:59.212Z,97992.16
2022-11-28T03:18:46.057Z,97978.78
2022-11-28T03:21:14.956Z,97999.19
2022-11-28T03:23:41.394Z,97990.13
2022-11-28T03:26:09.695Z,97997.03
2022-11-28T03:28:47.236Z,98011.53
2022-11-28T03:31:18.093Z,98014.16
2022-11-28T03:33:49.162Z,98008.91
2022-11-28T03:36:18.502Z,97991.22
2022-11-28T03:38:45.689Z,98004.34
2022-11-28T03:41:17.465Z,98014.84
2022-11-28T03:43:47.092Z,98010.16
2022-11-28T03:46:14.076Z,97995.78
2022-11-28T03:48:41.940Z,97996.22
2022-11-28T03:51:16.762Z,97998.97
2022-11-28T03:53:49.481Z,97998.97
2022-11-28T03:56:17.891Z,98001.44
2022-11-28T03:58:54.363Z,97997.44
2022-11-28T04:01:25.439Z,97988.88
2022-11-28T04:03:53.726Z,98001.44
2022-11-28T04:06:25.576Z,97988.19
2022-11-28T04:09:02.148Z,97982.34
2022-11-28T04:11:31.326Z,97977.09
2022-11-28T04:13:59.305Z,97985.13
2022-11-28T04:16:34.482Z,97980.69
2022-11-28T04:19:00.955Z,97976.28
2022-11-28T04:21:34.501Z,97979.06
2022-11-28T04:24:05.629Z,97977.13
2022-11-28T04:26:36.550Z,97974.09
2022-11-28T04:29:04.503Z,97976.00
2022-11-28T04:31:31.294Z,97985.41
2022-11-28T04:33:58.888Z,97986.91
2022-11-28T04:36:25.406Z,97991.06
2022-11-28T04:38:56.492Z,97993.16
2022-11-28T04:41:29.308Z,97988.44
2022-11-28T04:44:08.100Z,97989.28
2022-11-28T04:46:39.553Z,97981.13
2022-11-28T04:49:06.046Z,97981.00
2022-11-28T04:51:36.248Z,97979.31
2022-11-28T04:54:15.046Z,97971.28
2022-11-28T04:56:52.972Z,97986.66
2022-11-28T04:59:19.523Z,97983.75
2022-11-28T05:01:46.275Z,97980.44
2022-11-28T05:04:13.573Z,97976.41
2022-11-28T05:06:40.071Z,97969.09
2022-11-28T05:09:06.770Z,97969.78
2022-11-28T05:11:33.354Z,97963.16
2022-11-28T05:14:00.415Z,97961.34
2022-11-28T05:16:27.032Z,97965.50
2022-11-28T05:18:53.571Z,97958.31
2022-11-28T05:21:20.136Z,97960.94
2022-11-28T05:23:47.437Z,97960.66
2022-11-28T05:26:15.168Z,97954.00
2022-11-28T05:28:45.484Z,97955.56
2022-11-28T05:31:12.203Z,97958.59
2022-11-28T05:33:38.766Z,97969.94
2022-11-28T05:36:12.778Z,97968.13
2022-11-28T05:38:40.157Z,97966.47
2022-11-28T05:41:07.180Z,97967.69
2022-11-28T05:43:33.699Z,97978.91
2022-11-28T05:46:00.910Z,97978.91
2022-11-28T05:48:27.603Z,97979.03
2022-11-28T05:50:54.220Z,97983.88
2022-11-28T05:53:20.774Z,97984.28
2022-11-28T05:55:47.300Z,97991.19
2022-11-28T05:58:13.868Z,97983.88
2022-11-28T06:00:40.503Z,97988.47
2022-11-28T06:03:07.211Z,97991.75
2022-11-28T06:05:42.940Z,97993.16
2022-11-28T06:08:13.454Z,97991.50
2022-11-28T06:10:40.946Z,97989.28
2022-11-28T06:13:08.118Z,97990.38
2022-11-28T06:15:37.842Z,97985.81
2022-11-28T06:18:05.341Z,97982.63
2022-11-28T06:20:31.889Z,97982.34
2022-11-28T06:22:58.460Z,97979.59
2022-11-28T06:25:24.951Z,97983.19
2022-11-28T06:27:51.527Z,97989.00
2022-11-28T06:30:18.100Z,97992.31
2022-11-28T06:32:44.632Z,97997.97
2022-11-28T06:35:11.254Z,97992.44
2022-11-28T06:37:37.819Z,97996.47
2022-11-28T06:40:05.024Z,98002.28
2022-11-28T06:42:31.696Z,97996.19
2022-11-28T06:44:58.332Z,97992.72
2022-11-28T06:47:24.852Z,98000.47
2022-11-28T06:49:51.317Z,97989.53
2022-11-28T06:52:17.828Z,97997.97
2022-11-28T06:54:44.766Z,97988.44
2022-11-28T06:57:11.848Z,97989.97
2022-11-28T06:59:38.481Z,97989.25
2022-11-28T07:02:07.791Z,97996.03
2022-11-28T07:04:34.615Z,97998.53
2022-11-28T07:07:01.140Z,97993.53
2022-11-28T07:09:27.726Z,97984.00
2022-11-28T07:11:54.333Z,97980.69
2022-11-28T07:14:21.028Z,97991.50
2022-11-28T07:16:49.189Z,97997.72
2022-11-28T07:19:15.960Z,97992.88
2022-11-28T07:21:42.554Z,97987.59
2022-11-28T07:24:09.101Z,97989.97
2022-11-28T07:26:38.144Z,97994.81
2022-11-28T07:29:07.058Z,97998.41
2022-11-28T07:31:34.013Z,98002.41
2022-11-28T07:34:01.865Z,98005.84
2022-11-28T07:36:28.663Z,98011.41
2022-11-28T07:38:56.423Z,98013.16
2022-11-28T07:41:26.543Z,98017.47
2022-11-28T07:43:54.774Z,98014.97
2022-11-28T07:46:21.469Z,98021.34
2022-11-28T07:48:48.056Z,98021.63
2022-11-28T07:51:15.760Z,98013.63
2022-11-28T07:53:42.570Z,98014.97
2022-11-28T07:56:10.050Z,98009.59
2022-11-28T07:58:36.610Z,98012.22
2022-11-28T08:01:09.931Z,98007.50
2022-11-28T08:03:36.487Z,98002.25
2022-11-28T08:06:03.371Z,98004.47
2022-11-28T08:08:29.986Z,97996.69
2022-11-28T08:11:00.602Z,97999.72
2022-11-28T08:13:27.386Z,97996.28
2022-11-28T08:15:54.160Z,98003.56
2022-11-28T08:18:20.939Z,98007.53
2022-11-28T08:20:47.479Z,98008.91
2022-11-28T08:23:14.605Z,98016.13
2022-11-28T08:25:41.192Z,98021.09
2022-11-28T08:28:10.502Z,98012.06
2022-11-28T08:30:37.137Z,98016.31
2022-11-28T08:33:04.395Z,98014.13
2022-11-28T08:35:31.260Z,98010.06
2022-11-28T08:38:01.790Z,98015.78
2022-11-28T08:40:28.930Z,98009.94
2022-11-28T08:42:55.927Z,98004.78
2022-11-28T08:45:22.549Z,98010.84
2022-11-28T08:47:49.058Z,98014.28
2022-11-28T08:50:15.613Z,98010.34
2022-11-28T08:52:42.096Z,97996.81
2022-11-28T08:55:09.228Z,97996.50
2022-11-28T08:57:35.748Z,97985.50
2022-11-28T09:00:02.350Z,97996.41
2022-11-28T09:02:28.889Z,97989.88
2022-11-28T09:04:55.485Z,97990.72
2022-11-28T09:07:22.213Z,97996.06
2022-11-28T09:09:49.262Z,98000.47
2022-11-28T09:12:16.277Z,97994.97
2022-11-28T09:14:42.786Z,97998.38
2022-11-28T09:17:09.477Z,98009.22
2022-11-28T09:19:36.233Z,98015.31
2022-11-28T09:22:02.839Z,98005.22
2022-11-28T09:24:29.351Z,98006.41
2022-11-28T09:26:55.888Z,98001.88
2022-11-28T09:29:22.540Z,98006.88
2022-11-28T09:31:49.052Z,98008.91
2022-11-28T09:34:15.624Z,98003.56
2022-11-28T09:36:42.191Z,98002.56
2022-11-28T09:39:08.803Z,97998.53
2022-11-28T09:41:35.492Z,98003.09
2022-11-28T09:44:03.750Z,98008.84
2022-11-28T09:46:31.736Z,98014.78
2022-11-28T09:48:58.860Z,98018.94
2022-11-28T09:51:25.879Z,98016.38
2022-11-28T09:53:55.462Z,98025.72
2022-11-28T09:56:22.650Z,98019.19
2022-11-28T09:58:56.066Z,98015.69
2022-11-28T10:01:28.195Z,98009.06
2022-11-28T10:03:56.476Z,98004.63
2022-11-28T10:06:27.435Z,98002.34
2022-11-28T10:09:13.353Z,98007.38
2022-11-28T10:11:39.844Z,97997.44
2022-11-28T10:14:13.695Z,97997.81
2022-11-28T10:16:59.008Z,97991.59
2022-11-28T10:19:53.893Z,97990.25
2022-11-28T10:22:23.352Z,98004.34
2022-11-28T10:24:54.196Z,98020.56
2022-11-28T10:27:25.515Z,98018.22
2022-11-28T10:29:58.557Z,98018.44
2022-11-28T10:32:28.818Z,98010.88
2022-11-28T10:34:58.555Z,98009.50
2022-11-28T10:37:25.952Z,98013.34
2022-11-28T10:39:52.546Z,98018.22
2022-11-28T10:42:21.930Z,98012.94
2022-11-28T10:44:48.504Z,98012.78
2022-11-28T10:47:38.417Z,98005.72
2022-11-28T10:50:17.767Z,97998.56
2022-11-28T10:53:00.826Z,97995.75
2022-11-28T10:55:36.535Z,98000.56
2022-11-28T10:58:13.696Z,97995.50
2022-11-28T11:00:40.292Z,97993.38
2022-11-28T11:03:09.506Z,97993.09
2022-11-28T11:05:36.230Z,97998.91
2022-11-28T11:08:05.946Z,97996.28
2022-11-28T11:10:52.934Z,98005.31
2022-11-28T11:13:26.245Z,97999.69
2022-11-28T11:15:59.428Z,97989.16
2022-11-28T11:18:28.010Z,97991.66
2022-11-28T11:21:14.829Z,97990.81
2022-11-28T11:23:41.522Z,97987.19
2022-11-28T11:26:11.059Z,97990.50
2022-11-28T11:28:39.821Z,97993.44
2022-11-28T11:31:15.133Z,97987.81
2022-11-28T11:33:41.732Z,97981.81
2022-11-28T11:36:19.951Z,97975.13
2022-11-28T11:38:46.411Z,97992.31
2022-11-28T11:41:21.515Z,97988.09
2022-11-28T11:43:48.045Z,97986.06
2022-11-28T11:46:15.173Z,97984.28
2022-11-28T11:48:49.418Z,97974.28
2022-11-28T11:51:26.519Z,97979.13
2022-11-28T11:54:06.426Z,97978.00
2022-11-28T11:56:36.714Z,97973.72
2022-11-28T11:59:04.459Z,97977.19
2022-11-28T12:01:31.267Z,97961.47
2022-11-28T12:04:08.469Z,97971.47
2022-11-28T12:06:41.217Z,97960.66
2022-11-28T12:09:08.241Z,97965.75
2022-11-28T12:11:35.852Z,97960.56
2022-11-28T12:14:17.575Z,97969.00
2022-11-28T12:16:57.512Z,97966.06
2022-11-28T12:19:42.855Z,97969.72
2022-11-28T12:22:18.233Z,97974.53
2022-11-28T12:24:51.127Z,97964.31
2022-11-28T12:27:35.425Z,97968.75
2022-11-28T12:30:40.390Z,97966.84
2022-11-28T12:33:14.256Z,97963.84
2022-11-28T12:35:45.477Z,97966.75
2022-11-28T12:38:22.773Z,97956.31
2022-11-28T12:40:59.274Z,97956.81
2022-11-28T12:43:25.799Z,97959.28
2022-11-28T12:46:00.245Z,97953.03
2022-11-28T12:48:29.783Z,97952.72
2022-11-28T12:51:03.311Z,97946.13
2022-11-28T12:53:42.940Z,97944.88
2022-11-28T12:56:09.553Z,97940.69
2022-11-28T12:58:41.428Z,97946.19
2022-11-28T13:01:17.110Z,97942.84
2022-11-28T13:04:02.316Z,97944.72
2022-11-28T13:06:29.097Z,97949.38
2022-11-28T13:09:02.044Z,97946.34
2022-11-28T13:11:34.812Z,97943.34
2022-11-28T13:14:01.435Z,97940.56
2022-11-28T13:16:28.530Z,97944.94
2022-11-28T13:18:58.439Z,97928.13
2022-11-28T13:21:28.406Z,97939.81
2022-11-28T13:24:02.231Z,97933.88
2022-11-28T13:26:50.900Z,97929.94
2022-11-28T13:29:17.390Z,97920.03
2022-11-28T13:31:43.983Z,97931.88
2022-11-28T13:34:15.931Z,97927.28
2022-11-28T13:40:00.147Z,97918.03
2022-11-28T13:43:07.765Z,97922.81
2022-11-28T13:45:36.029Z,97922.81
2022-11-28T13:48:32.278Z,97918.56
2022-11-28T13:51:18.231Z,97922.81
2022-11-28T13:53:46.521Z,97920.63
2022-11-28T13:56:13.334Z,97923.59
2022-11-28T13:58:40.073Z,97920.97
2022-11-28T14:01:06.751Z,97921.81
2022-11-28T14:03:34.136Z,97912.91
2022-11-28T14:06:01.928Z,97927.53
2022-11-28T14:08:30.955Z,97910.56
2022-11-28T14:10:57.433Z,97912.38
2022-11-28T14:13:24.082Z,97919.47
2022-11-28T14:15:50.870Z,97914.66
2022-11-28T14:21:23.029Z,97908.13
2022-11-28T14:24:03.859Z,97912.44
2022-11-28T14:26:36.384Z,97918.03
2022-11-28T14:29:03.490Z,97910.63
2022-11-28T14:31:34.772Z,97903.03
2022-11-28T14:34:02.595Z,97908.63
2022-11-28T14:36:29.979Z,97904.50
2022-11-28T14:39:04.968Z,97909.78
2022-11-28T14:41:31.513Z,97912.75
2022-11-28T14:44:17.096Z,97911.91
2022-11-28T14:47:02.396Z,97918.31
2022-11-28T14:49:29.556Z,97918.09
2022-11-28T14:52:38.598Z,97917.00
2022-11-28T14:55:12.659Z,97913.56
2022-11-28T14:57:51.186Z,97913.03
2022-11-28T15:00:23.328Z,97925.91
2022-11-28T15:02:54.847Z,97920.59
2022-11-28T15:05:35.552Z,97929.19
2022-11-28T15:08:14.142Z,97927.03
2022-11-28T15:10:47.150Z,97929.94
2022-11-28T15:13:21.170Z,97920.72
2022-11-28T15:15:52.039Z,97920.28
2022-11-28T15:18:19.701Z,97920.47
2022-11-28T15:20:55.288Z,97921.13
2022-11-28T15:23:26.617Z,97924.75
2022-11-28T15:25:55.106Z,97918.41
2022-11-28T15:28:23.768Z,97917.97
2022-11-28T15:30:51.447Z,97915.56
2022-11-28T15:33:18.109Z,97911.06
2022-11-28T15:35:53.200Z,97915.59
2022-11-28T15:38:19.724Z,97923.75
2022-11-28T15:40:49.785Z,97923.69
2022-11-28T15:43:16.982Z,97917.88
2022-11-28T15:45:43.705Z,97930.34
2022-11-28T15:48:29.185Z,97926.91
2022-11-28T15:50:56.081Z,97919.41
2022-11-28T15:53:22.950Z,97925.31
2022-11-28T15:56:06.691Z,97923.66
2022-11-28T15:58:33.314Z,97924.34
2022-11-28T16:01:12.425Z,97925.41
2022-11-28T16:03:45.097Z,97928.09
2022-11-28T16:06:11.961Z,97927.00
2022-11-28T16:08:46.087Z,97923.47
2022-11-28T16:11:15.165Z,97929.19
2022-11-28T16:13:43.274Z,97924.66
2022-11-28T16:16:11.232Z,97932.34
2022-11-28T16:18:37.721Z,97932.88
2022-11-28T16:21:04.328Z,97939.53
2022-11-28T16:23:34.676Z,97931.59
2022-11-28T16:26:04.889Z,97931.31
2022-11-28T16:28:39.055Z,97937.28
2022-11-28T16:31:12.329Z,97940.59
2022-11-28T16:33:40.144Z,97936.09
2022-11-28T16:36:16.065Z,97935.31
2022-11-28T16:38:43.454Z,97937.56
2022-11-28T16:41:32.014Z,97940.72
2022-11-28T16:44:05.862Z,97934.91
2022-11-28T16:46:34.108Z,97941.38
2022-11-28T16:49:00.733Z,97939.56
2022-11-28T16:51:32.830Z,97941.66
2022-11-28T16:54:00.139Z,97941.97
2022-11-28T16:56:42.394Z,97938.13
2022-11-28T16:59:16.538Z,97935.19
2022-11-28T17:01:44.059Z,97942.72
2022-11-28T17:04:27.164Z,97938.06
2022-11-28T17:06:54.378Z,97940.53
2022-11-28T17:09:21.412Z,97936.84
2022-11-28T17:11:54.532Z,97928.41
2022-11-28T17:14:21.011Z,97937.00
2022-11-28T17:16:47.587Z,97939.47
2022-11-28T17:19:14.144Z,97940.66
2022-11-28T17:21:41.194Z,97941.22
2022-11-28T17:24:15.280Z,97940.16
2022-11-28T17:26:42.307Z,97934.28
2022-11-28T17:29:12.315Z,97932.47
2022-11-28T17:31:42.185Z,97932.72
2022-11-28T17:34:16.135Z,97930.91
2022-11-28T17:36:43.448Z,97925.19
2022-11-28T17:39:10.554Z,97926.22
2022-11-28T17:41:42.318Z,97926.69
2022-11-28T17:44:22.422Z,97927.28
2022-11-28T17:46:54.305Z,97920.81
2022-11-28T17:49:21.387Z,97924.44
2022-11-28T17:51:49.296Z,97923.31
2022-11-28T17:54:17.826Z,97916.66
2022-11-28T17:56:45.213Z,97919.09
2022-11-28T17:59:12.474Z,97925.03
2022-11-28T18:01:39.202Z,97927.22
2022-11-28T18:04:05.771Z,97922.25
2022-11-28T18:06:32.632Z,97931.66
2022-11-28T18:08:59.614Z,97941.38
2022-11-28T18:11:26.419Z,97942.41
2022-11-28T18:13:53.823Z,97936.63
2022-11-28T18:16:22.891Z,97937.75
2022-11-28T18:18:49.542Z,97943.53
2022-11-28T18:21:16.141Z,97944.00
2022-11-28T18:23:44.537Z,97943.41
2022-11-28T18:26:12.418Z,97947.97
2022-11-28T18:28:39.177Z,97944.00
2022-11-28T18:31:12.035Z,97949.34
2022-11-28T18:33:39.748Z,97937.13
2022-11-28T18:36:10.945Z,97937.13
2022-11-28T18:38:38.643Z,97940.59
2022-11-28T18:41:09.444Z,97941.06
2022-11-28T18:43:36.237Z,97938.56
2022-11-28T18:46:07.397Z,97941.50
2022-11-28T18:48:36.087Z,97944.06
2022-11-28T18:51:09.325Z,97944.84
2022-11-28T18:53:35.821Z,97936.09
2022-11-28T18:56:03.201Z,97944.44
2022-11-28T18:58:33.007Z,97949.09
2022-11-28T19:01:10.241Z,97949.47
2022-11-28T19:03:37.795Z,97966.25
2022-11-28T19:06:05.313Z,97956.06
2022-11-28T19:08:31.958Z,97964.63
2022-11-28T19:11:01.641Z,97957.91
2022-11-28T19:13:28.201Z,97959.59
2022-11-28T19:15:54.858Z,97956.97
2022-11-28T19:18:22.618Z,97951.97
2022-11-28T19:20:49.323Z,97944.97
2022-11-28T19:23:17.308Z,97945.66
2022-11-28T19:25:46.624Z,97952.28
2022-11-28T19:28:13.736Z,97951.19
2022-11-28T19:30:40.605Z,97958.88
2022-11-28T19:33:07.432Z,97959.38
2022-11-28T19:35:34.522Z,97958.53
2022-11-28T19:38:01.787Z,97953.09
2022-11-28T19:40:28.381Z,97962.50
2022-11-28T19:42:54.898Z,97956.88
2022-11-28T19:45:22.516Z,97958.78
2022-11-28T19:47:49.214Z,97950.94
2022-11-28T19:50:15.820Z,97944.28
2022-11-28T19:52:42.326Z,97936.00
2022-11-28T19:55:08.928Z,97944.53
2022-11-28T19:57:36.118Z,97948.59
2022-11-28T20:00:02.830Z,97947.09
2022-11-28T20:02:29.557Z,97940.63
2022-11-28T20:04:56.082Z,97941.13
2022-11-28T20:07:23.314Z,97958.16
2022-11-28T20:09:50.573Z,97955.84
2022-11-28T20:12:17.129Z,97953.09
2022-11-28T20:14:43.684Z,97949.34
2022-11-28T20:17:11.188Z,97946.81
2022-11-28T20:19:40.158Z,97957.09
2022-11-28T20:22:06.845Z,97957.72
2022-11-28T20:24:33.915Z,97962.00
2022-11-28T20:27:00.832Z,97961.69
2022-11-28T20:29:28.480Z,97965.41
2022-11-28T20:31:57.440Z,97967.28
2022-11-28T20:34:24.391Z,97972.53
2022-11-28T20:36:51.626Z,97970.84
2022-11-28T20:39:18.335Z,97971.72
2022-11-28T20:41:44.894Z,97975.81
2022-11-28T20:44:11.505Z,97970.97
2022-11-28T20:46:39.916Z,97977.91
2022-11-28T20:49:06.764Z,97970.16
2022-11-28T20:51:33.999Z,97983.47
2022-11-28T20:54:01.114Z,97980.13
2022-11-28T20:56:32.009Z,97968.75
2022-11-28T20:58:59.576Z,97978.44
2022-11-28T21:01:26.692Z,97977.34
2022-11-28T21:03:53.411Z,97968.22
2022-11-28T21:06:20.175Z,97975.16
2022-11-28T21:08:46.794Z,97975.97
2022-11-28T21:11:30.582Z,97974.13
2022-11-28T21:14:01.197Z,97972.78
2022-11-28T21:16:28.712Z,97973.75
2022-11-28T21:18:56.329Z,97976.53
2022-11-28T21:21:23.964Z,97973.06
2022-11-28T21:23:50.579Z,97972.22
2022-11-28T21:26:18.282Z,97970.44
2022-11-28T21:28:45.518Z,97979.97
2022-11-28T21:31:16.476Z,97974.59
2022-11-28T21:33:43.021Z,97976.94
2022-11-28T21:36:10.219Z,97984.53
2022-11-28T21:38:36.692Z,97983.22
2022-11-28T21:41:03.242Z,97983.09
2022-11-28T21:43:31.659Z,97983.78
2022-11-28T21:46:02.675Z,97983.22
2022-11-28T21:48:30.450Z,97981.75
2022-11-28T21:50:57.575Z,97978.81
2022-11-28T21:53:24.705Z,97984.22
2022-11-28T21:55:52.451Z,97981.72
2022-11-28T21:58:23.688Z,97982.09
2022-11-28T22:00:59.164Z,97979.47
2022-11-28T22:03:26.362Z,97976.19
2022-11-28T22:05:59.286Z,97979.84
2022-11-28T22:08:25.775Z,97985.78
2022-11-28T22:10:52.319Z,97985.88
2022-11-28T22:13:19.022Z,97987.22
2022-11-28T22:15:45.644Z,97983.72
2022-11-28T22:18:12.427Z,97983.47
2022-11-28T22:20:43.760Z,97987.75
2022-11-28T22:23:11.905Z,97980.59
2022-11-28T22:25:39.110Z,97978.56
2022-11-28T22:28:05.658Z,97981.22
2022-11-28T22:30:32.405Z,97978.75
2022-11-28T22:33:00.225Z,97982.34
2022-11-28T22:35:27.372Z,97982.09
2022-11-28T22:37:54.551Z,97990.53
2022-11-28T22:40:21.237Z,97977.25
2022-11-28T22:42:48.004Z,97988.31
2022-11-28T22:45:14.620Z,97993.56
2022-11-28T22:47:41.162Z,97989.56
2022-11-28T22:50:08.064Z,97990.53
2022-11-28T22:52:34.591Z,97990.41
2022-11-28T22:55:01.390Z,97985.34
2022-11-28T22:57:27.908Z,97994.16
2022-11-28T22:59:54.411Z,97991.13
2022-11-28T23:02:21.135Z,97992.75
2022-11-28T23:04:48.631Z,97993.06
2022-11-28T23:07:15.962Z,97993.72
2022-11-28T23:09:43.093Z,97994.16
2022-11-28T23:12:10.321Z,97995.81
2022-11-28T23:14:36.955Z,97998.06
2022-11-28T23:17:03.463Z,98002.13
2022-11-28T23:19:31.207Z,97995.56
2022-11-28T23:21:57.884Z,97995.72
2022-11-28T23:24:24.662Z,97996.03
2022-11-28T23:26:52.328Z,97991.34
2022-11-28T23:29:19.220Z,98005.75
2022-11-28T23:31:46.996Z,98003.41
2022-11-28T23:34:14.004Z,98001.06
2022-11-28T23:36:42.725Z,98003.25
2022-11-28T23:39:13.794Z,97996.84
2022-11-28T23:41:40.680Z,97995.13
2022-11-28T23:44:07.454Z,97992.88
2022-11-28T23:46:34.604Z,98001.03
2022-11-28T23:49:01.122Z,98000.13
2022-11-28T23:51:27.805Z,98001.09
2022-11-28T23:53:54.458Z,97993.78
2022-11-28T23:56:24.831Z,98003.13
2022-11-28T23:58:51.741Z,97994.69
